createdAt,value
2022-10-12T00:00:12.993Z,8.38
2022-10-12T00:03:00.456Z,8.48
2022-10-12T00:05:29.649Z,13.43
2022-10-12T00:07:58.629Z,4.95
2022-10-12T00:10:28.038Z,14.10
2022-10-12T00:12:56.539Z,6.95
2022-10-12T00:15:25.516Z,4.90
2022-10-12T00:17:55.165Z,8.88
2022-10-12T00:20:23.492Z,9.77
2022-10-12T00:22:54.762Z,5.90
2022-10-12T00:25:23.427Z,7.40
2022-10-12T00:27:51.760Z,7.72
2022-10-12T00:30:20.998Z,11.00
2022-10-12T00:33:08.588Z,7.40
2022-10-12T00:35:37.039Z,5.32
2022-10-12T00:38:06.290Z,4.05
2022-10-12T00:40:36.512Z,8.18
2022-10-12T00:43:04.955Z,8.35
2022-10-12T00:45:33.596Z,8.55
2022-10-12T00:48:02.396Z,11.63
2022-10-12T00:50:33.867Z,5.60
2022-10-12T00:53:06.548Z,10.10
2022-10-12T00:55:39.620Z,3.73
2022-10-12T00:58:08.791Z,9.38
2022-10-12T01:00:40.787Z,8.88
2022-10-12T01:03:27.132Z,8.30
2022-10-12T01:05:56.128Z,6.40
2022-10-12T01:08:24.825Z,5.53
2022-10-12T01:10:53.571Z,10.57
2022-10-12T01:13:41.098Z,7.43
2022-10-12T01:16:40.063Z,6.35
2022-10-12T01:19:42.491Z,11.32
2022-10-12T01:22:31.805Z,8.32
2022-10-12T01:25:15.563Z,9.65
2022-10-12T01:27:53.971Z,11.35
2022-10-12T01:30:26.421Z,9.50
2022-10-12T01:32:57.532Z,15.55
2022-10-12T01:35:25.660Z,11.07
2022-10-12T01:38:20.726Z,8.77
2022-10-12T01:43:23.532Z,7.60
2022-10-12T01:45:53.780Z,12.43
2022-10-12T01:48:23.289Z,7.05
2022-10-12T01:50:55.845Z,13.77
2022-10-12T01:53:31.328Z,5.65
2022-10-12T01:56:12.310Z,14.60
2022-10-12T01:58:59.863Z,9.35
2022-10-12T02:01:33.552Z,8.65
2022-10-12T02:06:33.988Z,7.85
2022-10-12T02:09:07.119Z,9.88
2022-10-12T02:11:38.776Z,5.50
2022-10-12T02:14:14.360Z,10.93
2022-10-12T02:17:04.520Z,13.75
2022-10-12T02:19:38.616Z,13.45
2022-10-12T02:22:08.593Z,9.18
2022-10-12T02:24:40.818Z,5.68
2022-10-12T02:27:11.203Z,10.70
2022-10-12T02:29:43.016Z,10.88
2022-10-12T02:32:20.454Z,12.00
2022-10-12T02:35:03.050Z,7.47
2022-10-12T02:37:44.430Z,4.22
2022-10-12T02:40:13.148Z,5.13
2022-10-12T02:43:09.801Z,5.70
2022-10-12T02:45:41.091Z,8.93
2022-10-12T02:48:12.908Z,10.10
2022-10-12T02:50:41.556Z,7.50
2022-10-12T02:53:16.468Z,5.63
2022-10-12T02:55:53.649Z,17.20
2022-10-12T02:58:22.255Z,7.07
2022-10-12T03:00:51.299Z,6.80
2022-10-12T03:03:29.397Z,6.80
2022-10-12T03:05:58.168Z,11.25
2022-10-12T03:08:41.686Z,7.32
2022-10-12T03:11:12.927Z,7.93
2022-10-12T03:13:41.650Z,11.00
2022-10-12T03:16:11.179Z,7.97
2022-10-12T03:18:45.026Z,9.65
2022-10-12T03:21:15.612Z,8.48
2022-10-12T03:23:47.198Z,9.25
2022-10-12T03:26:17.112Z,5.10
2022-10-12T03:28:48.899Z,10.48
2022-10-12T03:31:17.295Z,8.70
2022-10-12T03:33:46.085Z,9.20
2022-10-12T03:36:15.318Z,9.75
2022-10-12T03:38:43.397Z,13.32
2022-10-12T03:41:12.456Z,12.07
2022-10-12T03:43:42.279Z,6.00
2022-10-12T03:46:12.158Z,26.17
2022-10-12T03:48:48.868Z,10.82
2022-10-12T03:51:18.044Z,8.65
2022-10-12T03:53:47.549Z,5.22
2022-10-12T03:56:16.294Z,9.35
2022-10-12T03:58:44.847Z,6.55
2022-10-12T04:01:13.222Z,15.57
2022-10-12T04:03:49.960Z,8.75
2022-10-12T04:06:19.088Z,6.30
2022-10-12T04:08:50.855Z,9.02
2022-10-12T04:11:20.278Z,9.13
2022-10-12T04:13:52.627Z,9.10
2022-10-12T04:16:24.071Z,7.03
2022-10-12T04:18:57.068Z,7.90
2022-10-12T04:21:31.224Z,9.60
2022-10-12T04:24:00.105Z,10.20
2022-10-12T04:26:29.056Z,7.40
2022-10-12T04:28:57.708Z,9.18
2022-10-12T04:31:26.691Z,13.18
2022-10-12T04:33:56.852Z,7.65
2022-10-12T04:36:26.484Z,7.82
2022-10-12T04:39:00.671Z,8.63
2022-10-12T04:41:32.210Z,9.57
2022-10-12T04:44:01.989Z,9.15
2022-10-12T04:46:32.460Z,14.65
2022-10-12T04:49:01.033Z,11.85
2022-10-12T04:51:29.765Z,7.35
2022-10-12T04:53:58.139Z,6.07
2022-10-12T04:56:26.909Z,7.07
2022-10-12T04:58:59.222Z,11.30
2022-10-12T05:01:30.431Z,9.90
2022-10-12T05:04:08.314Z,5.72
2022-10-12T05:06:44.759Z,5.13
2022-10-12T05:09:19.170Z,7.93
2022-10-12T05:11:47.994Z,7.90
2022-10-12T05:14:18.310Z,12.57
2022-10-12T05:16:46.946Z,6.75
2022-10-12T05:19:18.255Z,4.47
2022-10-12T05:21:46.829Z,5.72
2022-10-12T05:24:16.970Z,4.93
2022-10-12T05:26:49.227Z,9.13
2022-10-12T05:29:25.358Z,12.98
2022-10-12T05:31:54.673Z,4.18
2022-10-12T05:34:24.169Z,9.75
2022-10-12T05:36:58.316Z,14.57
2022-10-12T05:39:26.948Z,4.97
2022-10-12T05:42:10.514Z,4.33
2022-10-12T05:44:47.113Z,12.68
2022-10-12T05:47:19.233Z,7.40
2022-10-12T05:49:48.491Z,6.80
2022-10-12T05:52:17.040Z,9.23
2022-10-12T05:54:45.737Z,6.10
2022-10-12T05:57:15.262Z,8.23
2022-10-12T05:59:43.810Z,9.02
2022-10-12T06:02:16.329Z,6.90
2022-10-12T06:04:45.650Z,4.90
2022-10-12T06:07:15.378Z,7.32
2022-10-12T06:09:47.593Z,5.95
2022-10-12T06:12:17.027Z,9.30
2022-10-12T06:14:47.292Z,11.68
2022-10-12T06:17:16.893Z,9.65
2022-10-12T06:19:46.026Z,8.23
2022-10-12T06:22:15.452Z,11.55
2022-10-12T06:24:43.843Z,8.55
2022-10-12T06:27:13.889Z,11.85
2022-10-12T06:29:42.523Z,13.48
2022-10-12T06:32:11.669Z,9.05
2022-10-12T06:34:39.989Z,5.75
2022-10-12T06:37:25.389Z,8.35
2022-10-12T06:39:59.972Z,7.75
2022-10-12T06:42:32.934Z,10.13
2022-10-12T06:45:01.434Z,7.20
2022-10-12T06:47:32.733Z,19.83
2022-10-12T06:50:03.715Z,8.80
2022-10-12T06:52:36.013Z,6.22
2022-10-12T06:55:06.429Z,6.65
2022-10-12T06:57:38.784Z,9.68
2022-10-12T07:00:08.034Z,10.85
2022-10-12T07:02:55.584Z,6.85
2022-10-12T07:05:24.425Z,16.42
2022-10-12T07:07:55.102Z,11.30
2022-10-12T07:10:23.752Z,12.10
2022-10-12T07:12:52.200Z,8.90
2022-10-12T07:15:21.698Z,8.13
2022-10-12T07:17:53.441Z,10.23
2022-10-12T07:20:23.987Z,20.50
2022-10-12T07:23:10.863Z,11.00
2022-10-12T07:25:48.471Z,12.20
2022-10-12T07:28:19.506Z,13.23
2022-10-12T07:30:49.627Z,12.40
2022-10-12T07:33:26.214Z,15.32
2022-10-12T07:36:13.245Z,45.03
2022-10-12T07:38:48.781Z,17.10
2022-10-12T07:41:17.820Z,16.00
2022-10-12T07:43:46.379Z,15.10
2022-10-12T07:46:15.055Z,16.48
2022-10-12T07:48:49.826Z,13.02
2022-10-12T07:51:19.019Z,9.27
2022-10-12T07:53:47.653Z,17.00
2022-10-12T07:56:16.197Z,16.98
2022-10-12T07:58:51.930Z,9.48
2022-10-12T08:01:25.217Z,9.02
2022-10-12T08:04:02.878Z,10.07
2022-10-12T08:06:34.638Z,11.93
2022-10-12T08:09:07.171Z,8.55
2022-10-12T08:11:41.213Z,11.48
2022-10-12T08:14:16.591Z,9.15
2022-10-12T08:16:45.870Z,23.08
2022-10-12T08:19:15.096Z,6.50
2022-10-12T08:21:43.821Z,7.88
2022-10-12T08:24:13.941Z,14.73
2022-10-12T08:26:50.298Z,11.13
2022-10-12T08:29:19.441Z,7.32
2022-10-12T08:31:52.901Z,19.42
2022-10-12T08:34:32.403Z,9.45
2022-10-12T08:37:03.946Z,11.30
2022-10-12T08:39:37.989Z,9.25
2022-10-12T08:42:14.987Z,9.45
2022-10-12T08:45:05.390Z,10.90
2022-10-12T08:47:44.629Z,12.95
2022-10-12T08:50:17.792Z,17.58
2022-10-12T08:52:52.576Z,9.95
2022-10-12T08:57:53.951Z,9.07
2022-10-12T09:00:24.847Z,6.03
2022-10-12T09:03:24.781Z,6.05
2022-10-12T09:06:20.385Z,11.23
2022-10-12T09:11:19.317Z,6.10
2022-10-12T09:13:52.905Z,10.35
2022-10-12T09:16:24.085Z,4.43
2022-10-12T09:19:09.213Z,13.90
2022-10-12T09:21:40.740Z,5.03
2022-10-12T09:24:14.900Z,13.02
2022-10-12T09:26:44.491Z,9.90
2022-10-12T09:29:21.691Z,5.07
2022-10-12T09:32:03.629Z,11.57
2022-10-12T09:34:34.652Z,7.10
2022-10-12T09:37:05.873Z,7.35
2022-10-12T09:39:36.243Z,11.18
2022-10-12T09:42:11.576Z,12.32
2022-10-12T09:44:48.915Z,13.35
2022-10-12T09:47:31.381Z,11.52
2022-10-12T09:50:02.385Z,6.33
2022-10-12T09:52:36.389Z,13.77
2022-10-12T09:55:19.338Z,11.10
2022-10-12T09:57:53.747Z,13.93
2022-10-12T10:00:27.120Z,8.68
2022-10-12T10:03:30.796Z,9.43
2022-10-12T10:06:07.003Z,5.22
2022-10-12T10:08:41.758Z,9.88
2022-10-12T10:11:17.589Z,5.22
2022-10-12T10:13:48.630Z,16.23
2022-10-12T10:16:18.048Z,6.18
2022-10-12T10:18:58.116Z,9.02
2022-10-12T10:21:45.771Z,6.13
2022-10-12T10:24:29.717Z,11.13
2022-10-12T10:27:30.131Z,9.48
2022-10-12T10:30:29.213Z,10.27
2022-10-12T10:33:16.044Z,13.48
2022-10-12T10:35:58.426Z,8.77
2022-10-12T10:38:28.760Z,4.28
2022-10-12T10:40:57.970Z,4.95
2022-10-12T10:43:27.891Z,10.27
2022-10-12T10:46:00.660Z,10.35
2022-10-12T10:48:41.610Z,9.02
2022-10-12T10:51:13.667Z,8.43
2022-10-12T10:53:49.045Z,14.80
2022-10-12T10:56:30.981Z,9.82
2022-10-12T10:59:06.439Z,8.90
2022-10-12T11:01:53.938Z,7.20
2022-10-12T11:04:26.548Z,6.55
2022-10-12T11:06:56.660Z,7.97
2022-10-12T11:09:29.926Z,8.25
2022-10-12T11:12:02.520Z,6.22
2022-10-12T11:14:35.449Z,3.15
2022-10-12T11:17:08.475Z,7.03
2022-10-12T11:19:44.557Z,9.20
2022-10-12T11:22:15.770Z,8.85
2022-10-12T11:24:46.391Z,7.15
2022-10-12T11:27:26.675Z,3.03
2022-10-12T11:30:08.936Z,7.43
2022-10-12T11:32:46.168Z,26.75
2022-10-12T11:35:28.590Z,7.35
2022-10-12T11:38:06.161Z,6.80
2022-10-12T11:43:37.181Z,8.45
2022-10-12T11:46:08.162Z,10.35
2022-10-12T11:48:57.288Z,10.20
2022-10-12T11:51:25.685Z,6.70
2022-10-12T11:54:02.494Z,8.68
2022-10-12T11:56:43.083Z,6.50
2022-10-12T11:59:14.184Z,5.47
2022-10-12T12:02:02.565Z,14.55
2022-10-12T12:04:42.095Z,9.60
2022-10-12T12:07:29.493Z,9.82
2022-10-12T12:09:57.679Z,9.88
2022-10-12T12:12:27.744Z,6.07
2022-10-12T12:14:55.660Z,8.90
2022-10-12T12:17:25.896Z,11.35
2022-10-12T12:20:05.411Z,7.40
2022-10-12T12:22:40.189Z,20.65
2022-10-12T12:25:11.412Z,15.15
2022-10-12T12:27:51.977Z,10.57
2022-10-12T12:30:19.909Z,12.27
2022-10-12T12:33:15.799Z,12.55
2022-10-12T12:36:00.127Z,12.57
2022-10-12T12:38:34.170Z,9.55
2022-10-12T12:41:11.360Z,8.45
2022-10-12T12:43:51.318Z,7.53
2022-10-12T12:46:21.720Z,6.13
2022-10-12T12:48:49.703Z,4.90
2022-10-12T12:51:23.600Z,5.20
2022-10-12T12:53:53.665Z,10.48
2022-10-12T12:56:40.791Z,6.38
2022-10-12T12:59:15.329Z,7.15
2022-10-12T13:01:52.451Z,6.57
2022-10-12T13:04:34.674Z,7.10
2022-10-12T13:07:06.120Z,13.38
2022-10-12T13:09:46.071Z,7.65
2022-10-12T13:12:25.835Z,17.17
2022-10-12T13:15:19.520Z,9.07
2022-10-12T13:17:53.779Z,6.65
2022-10-12T13:20:23.786Z,11.82
2022-10-12T13:22:54.000Z,12.68
2022-10-12T13:25:31.231Z,10.10
2022-10-12T13:28:07.108Z,7.82
2022-10-12T13:30:52.341Z,9.23
2022-10-12T13:33:33.479Z,10.75
2022-10-12T13:36:06.698Z,11.15
2022-10-12T13:38:38.437Z,10.40
2022-10-12T13:41:11.054Z,13.40
2022-10-12T13:43:52.819Z,14.23
2022-10-12T13:46:41.585Z,17.48
2022-10-12T13:49:14.647Z,8.63
2022-10-12T13:51:44.054Z,14.07
2022-10-12T13:54:21.789Z,16.85
2022-10-12T13:57:06.468Z,14.45
2022-10-12T13:59:44.595Z,7.10
2022-10-12T14:02:29.015Z,10.10
2022-10-12T14:05:08.308Z,7.30
2022-10-12T14:07:43.980Z,9.35
2022-10-12T14:10:17.537Z,9.27
2022-10-12T14:12:48.060Z,11.75
2022-10-12T14:15:17.165Z,17.10
2022-10-12T14:17:50.653Z,17.00
2022-10-12T14:20:31.020Z,6.80
2022-10-12T14:23:00.497Z,9.98
2022-10-12T14:25:29.822Z,15.52
2022-10-12T14:28:00.073Z,12.10
2022-10-12T14:30:31.068Z,16.40
2022-10-12T14:33:16.384Z,12.13
2022-10-12T14:35:48.105Z,11.25
2022-10-12T14:38:31.587Z,10.93
2022-10-12T14:41:19.678Z,8.38
2022-10-12T14:44:05.267Z,11.70
2022-10-12T14:46:49.379Z,7.13
2022-10-12T14:49:36.200Z,10.38
2022-10-12T14:52:04.608Z,7.38
2022-10-12T14:54:35.707Z,10.77
2022-10-12T14:57:17.791Z,8.18
2022-10-12T15:00:34.230Z,9.87
2022-10-12T15:04:04.406Z,8.90
2022-10-12T15:06:53.582Z,11.25
2022-10-12T15:09:31.819Z,17.23
2022-10-12T15:12:02.403Z,11.65
2022-10-12T15:14:43.387Z,15.13
2022-10-12T15:17:17.597Z,11.98
2022-10-12T15:19:51.506Z,14.27
2022-10-12T15:22:25.662Z,10.02
2022-10-12T15:24:57.327Z,11.73
2022-10-12T15:27:27.236Z,11.57
2022-10-12T15:29:58.008Z,13.43
2022-10-12T15:32:28.224Z,14.70
2022-10-12T15:35:01.424Z,9.27
2022-10-12T15:37:46.421Z,11.05
2022-10-12T15:40:16.678Z,18.35
2022-10-12T15:42:49.899Z,8.30
2022-10-12T15:45:23.002Z,10.82
2022-10-12T15:47:56.816Z,9.25
2022-10-12T15:50:30.833Z,13.40
2022-10-12T15:53:09.596Z,10.35
2022-10-12T15:55:47.743Z,10.25
2022-10-12T15:58:31.070Z,14.35
2022-10-12T16:01:05.616Z,11.77
2022-10-12T16:03:45.608Z,9.63
2022-10-12T16:06:28.652Z,10.77
2022-10-12T16:09:11.934Z,9.63
2022-10-12T16:11:53.656Z,11.13
2022-10-12T16:14:29.198Z,9.82
2022-10-12T16:17:07.285Z,13.32
2022-10-12T16:19:48.140Z,12.18
2022-10-12T16:22:31.493Z,12.05
2022-10-12T16:25:11.119Z,10.60
2022-10-12T16:27:57.357Z,19.35
2022-10-12T16:30:42.694Z,11.68
2022-10-12T16:33:32.950Z,14.02
2022-10-12T16:36:13.662Z,9.20
2022-10-12T16:38:44.351Z,10.13
2022-10-12T16:41:14.498Z,12.82
2022-10-12T16:43:47.062Z,10.52
2022-10-12T16:48:56.598Z,8.23
2022-10-12T16:51:25.420Z,11.30
2022-10-12T16:53:54.298Z,14.32
2022-10-12T16:56:22.784Z,11.43
2022-10-12T16:58:51.654Z,11.95
2022-10-12T17:01:22.176Z,7.57
2022-10-12T17:03:55.769Z,14.27
2022-10-12T17:09:22.524Z,10.80
2022-10-12T17:12:07.791Z,9.57
2022-10-12T17:14:53.003Z,9.65
2022-10-12T17:17:21.771Z,11.93
2022-10-12T17:19:50.917Z,15.63
2022-10-12T17:22:20.072Z,7.82
2022-10-12T17:24:50.064Z,13.10
2022-10-12T17:27:19.283Z,14.77
2022-10-12T17:29:48.423Z,11.93
2022-10-12T17:32:17.741Z,9.48
2022-10-12T17:34:47.768Z,8.55
2022-10-12T17:37:17.317Z,8.27
2022-10-12T17:39:48.262Z,14.13
2022-10-12T17:42:17.868Z,17.58
2022-10-12T17:44:55.758Z,11.18
2022-10-12T17:47:26.588Z,15.50
2022-10-12T17:49:57.157Z,13.20
2022-10-12T17:52:28.081Z,18.92
2022-10-12T17:54:56.581Z,14.77
2022-10-12T17:57:25.020Z,11.18
2022-10-12T17:59:54.581Z,17.25
2022-10-12T18:02:24.501Z,9.27
2022-10-12T18:04:59.046Z,14.90
2022-10-12T18:07:36.002Z,12.30
2022-10-12T18:10:07.156Z,15.63
2022-10-12T18:12:45.043Z,10.52
2022-10-12T18:15:19.960Z,9.65
2022-10-12T18:18:06.353Z,12.57
2022-10-12T18:20:41.227Z,8.02
2022-10-12T18:23:15.949Z,8.63
2022-10-12T18:25:50.787Z,15.95
2022-10-12T18:28:21.057Z,9.77
2022-10-12T18:30:55.688Z,11.70
2022-10-12T18:33:30.019Z,15.40
2022-10-12T18:36:04.237Z,11.40
2022-10-12T18:38:41.610Z,15.15
2022-10-12T18:41:22.313Z,11.85
2022-10-12T18:43:58.011Z,16.00
2022-10-12T18:46:37.077Z,11.98
2022-10-12T18:49:19.642Z,14.07
2022-10-12T18:54:50.748Z,8.70
2022-10-12T18:57:32.130Z,11.85
2022-10-12T19:00:13.230Z,14.80
2022-10-12T19:03:00.739Z,16.85
2022-10-12T19:11:06.466Z,18.60
2022-10-12T19:13:37.168Z,11.88
2022-10-12T19:16:09.957Z,15.07
2022-10-12T19:18:39.242Z,13.10
2022-10-12T19:21:09.580Z,16.85
2022-10-12T19:23:38.011Z,12.43
2022-10-12T19:26:07.897Z,21.63
2022-10-12T19:28:38.891Z,16.20
2022-10-12T19:31:11.879Z,13.88
2022-10-12T19:33:42.129Z,11.38
2022-10-12T19:36:12.452Z,11.30
2022-10-12T19:38:41.074Z,11.18
2022-10-12T19:41:10.416Z,16.80
2022-10-12T19:43:39.077Z,17.33
2022-10-12T19:46:08.793Z,17.52
2022-10-12T19:48:39.281Z,19.52
2022-10-12T19:51:09.007Z,15.77
2022-10-12T19:53:41.920Z,10.68
2022-10-12T19:56:13.821Z,18.40
2022-10-12T19:58:45.251Z,15.32
2022-10-12T20:01:16.856Z,21.73
2022-10-12T20:03:49.919Z,16.95
2022-10-12T20:06:26.599Z,11.38
2022-10-12T20:09:14.168Z,9.68
2022-10-12T20:12:01.669Z,17.17
2022-10-12T20:14:49.265Z,12.32
2022-10-12T20:17:37.227Z,12.98
2022-10-12T20:20:24.953Z,22.08
2022-10-12T20:23:12.700Z,20.77
2022-10-12T20:26:00.215Z,18.25
2022-10-12T20:28:48.008Z,13.55
2022-10-12T20:31:35.663Z,12.63
2022-10-12T20:34:23.222Z,17.75
2022-10-12T20:37:11.181Z,13.32
2022-10-12T20:39:58.928Z,14.00
2022-10-12T20:42:46.495Z,12.18
2022-10-12T20:45:35.169Z,16.80
2022-10-12T20:48:22.726Z,16.80
2022-10-12T20:51:10.646Z,21.42
2022-10-12T20:54:00.730Z,16.95
2022-10-12T20:56:51.914Z,18.10
2022-10-12T20:59:22.079Z,19.55
2022-10-12T21:01:52.431Z,15.50
2022-10-12T21:04:21.324Z,18.33
2022-10-12T21:06:57.236Z,15.27
2022-10-12T21:09:26.460Z,12.43
2022-10-12T21:11:55.140Z,20.17
2022-10-12T21:14:26.312Z,18.98
2022-10-12T21:16:57.873Z,24.25
2022-10-12T21:19:45.409Z,23.65
2022-10-12T21:22:32.954Z,29.05
2022-10-12T21:25:20.522Z,24.55
2022-10-12T21:28:08.050Z,24.38
2022-10-12T21:30:38.322Z,17.90
2022-10-12T21:33:25.858Z,31.77
2022-10-12T21:35:57.896Z,27.35
2022-10-12T21:38:30.829Z,22.27
2022-10-12T21:41:00.220Z,18.35
2022-10-12T21:43:33.659Z,20.25
2022-10-12T21:46:07.805Z,21.25
2022-10-12T21:48:39.773Z,28.38
2022-10-12T21:51:14.757Z,26.80
2022-10-12T21:53:43.505Z,32.13
2022-10-12T21:56:41.155Z,32.10
2022-10-12T21:59:11.567Z,26.13
2022-10-12T22:01:59.133Z,33.05
2022-10-12T22:04:46.668Z,27.45
2022-10-12T22:07:34.276Z,37.63
2022-10-12T22:10:21.769Z,32.53
2022-10-12T22:13:09.350Z,26.55
2022-10-12T22:16:10.617Z,26.95
2022-10-12T22:18:59.421Z,24.38
2022-10-12T22:21:52.985Z,33.90
2022-10-12T22:24:22.544Z,44.60
2022-10-12T22:26:50.908Z,22.10
2022-10-12T22:29:19.209Z,23.67
2022-10-12T22:31:48.068Z,27.77
2022-10-12T22:34:16.748Z,31.23
2022-10-12T22:36:47.719Z,24.80
2022-10-12T22:39:22.204Z,24.20
2022-10-12T22:41:50.771Z,30.02
2022-10-12T22:44:19.912Z,37.50
2022-10-12T22:46:49.285Z,27.70
2022-10-12T22:49:22.827Z,28.23
2022-10-12T22:51:51.942Z,35.75
2022-10-12T22:54:24.049Z,36.55
2022-10-12T22:57:00.033Z,31.30
2022-10-12T22:59:31.445Z,30.77
2022-10-12T23:02:00.531Z,28.92
2022-10-12T23:04:35.776Z,37.58
2022-10-12T23:07:05.365Z,29.15
2022-10-12T23:09:35.995Z,31.27
2022-10-12T23:12:05.466Z,29.30
2022-10-12T23:14:36.129Z,30.05
2022-10-12T23:17:04.728Z,24.88
2022-10-12T23:19:35.092Z,32.80
2022-10-12T23:22:04.316Z,33.30
2022-10-12T23:24:36.477Z,34.63
2022-10-12T23:27:09.373Z,24.98
2022-10-12T23:29:42.151Z,29.10
2022-10-12T23:32:12.895Z,30.23
2022-10-12T23:34:41.826Z,23.27
2022-10-12T23:37:10.723Z,22.90
2022-10-12T23:39:39.783Z,31.40
2022-10-12T23:42:09.189Z,28.58
2022-10-12T23:44:38.978Z,26.67
2022-10-12T23:47:07.356Z,30.63
2022-10-12T23:49:37.298Z,26.80
2022-10-12T23:52:08.510Z,24.90
2022-10-12T23:54:37.809Z,27.60
2022-10-12T23:57:22.529Z,29.02
2022-10-12T23:59:56.481Z,32.33
